sensor_id;sensor_type;location;lat;lon;timestamp;pressure;altitude;pressure_sealevel;temperature;humidity
11648;BME280;5880;52.342;9.662;2024-01-10T00:01:34;102769.06;;;-1.55;52.28
11648;BME280;5880;52.342;9.662;2024-01-10T00:03:59;102759.31;;;-1.56;52.12
11648;BME280;5880;52.342;9.662;2024-01-10T00:06:25;102746.44;;;-1.63;52.21
11648;BME280;5880;52.342;9.662;2024-01-10T00:08:51;102750.06;;;-1.64;52.36
11648;BME280;5880;52.342;9.662;2024-01-10T00:11:17;102745.88;;;-1.68;52.54
11648;BME280;5880;52.342;9.662;2024-01-10T00:13:42;102751.88;;;-1.65;52.32
11648;BME280;5880;52.342;9.662;2024-01-10T00:16:09;102746.50;;;-1.65;52.22
11648;BME280;5880;52.342;9.662;2024-01-10T00:18:36;102742.97;;;-1.65;52.14
11648;BME280;5880;52.342;9.662;2024-01-10T00:21:02;102741.06;;;-1.63;52.59
11648;BME280;5880;52.342;9.662;2024-01-10T00:23:28;102742.00;;;-1.64;52.39
11648;BME280;5880;52.342;9.662;2024-01-10T00:25:54;102743.63;;;-1.62;51.99
11648;BME280;5880;52.342;9.662;2024-01-10T00:28:19;102737.41;;;-1.62;52.17
11648;BME280;5880;52.342;9.662;2024-01-10T00:30:46;102740.84;;;-1.60;51.97
11648;BME280;5880;52.342;9.662;2024-01-10T00:33:13;102731.41;;;-1.66;52.13
11648;BME280;5880;52.342;9.662;2024-01-10T00:35:39;102746.31;;;-1.62;52.22
11648;BME280;5880;52.342;9.662;2024-01-10T00:38:05;102736.75;;;-1.66;52.36
11648;BME280;5880;52.342;9.662;2024-01-10T00:40:31;102740.28;;;-1.65;52.39
11648;BME280;5880;52.342;9.662;2024-01-10T00:42:56;102730.63;;;-1.68;52.44
11648;BME280;5880;52.342;9.662;2024-01-10T00:45:22;102733.97;;;-1.64;52.40
11648;BME280;5880;52.342;9.662;2024-01-10T00:47:51;102732.16;;;-1.64;52.10
11648;BME280;5880;52.342;9.662;2024-01-10T00:50:17;102732.16;;;-1.64;52.18
11648;BME280;5880;52.342;9.662;2024-01-10T00:52:46;102746.50;;;-1.65;52.34
11648;BME280;5880;52.342;9.662;2024-01-10T00:55:12;102740.38;;;-1.67;52.16
11648;BME280;5880;52.342;9.662;2024-01-10T00:57:38;102730.44;;;-1.65;52.25
11648;BME280;5880;52.342;9.662;2024-01-10T01:00:09;102735.69;;;-1.63;52.17
11648;BME280;5880;52.342;9.662;2024-01-10T01:02:36;102730.44;;;-1.65;52.36
11648;BME280;5880;52.342;9.662;2024-01-10T01:05:03;102745.75;;;-1.67;52.46
11648;BME280;5880;52.342;9.662;2024-01-10T01:07:28;102741.38;;;-1.68;52.40
11648;BME280;5880;52.342;9.662;2024-01-10T01:09:54;102729.78;;;-1.68;52.37
11648;BME280;5880;52.342;9.662;2024-01-10T01:12:20;102741.25;;;-1.66;52.46
11648;BME280;5880;52.342;9.662;2024-01-10T01:14:45;102735.69;;;-1.63;52.57
11648;BME280;5880;52.342;9.662;2024-01-10T01:17:12;102734.72;;;-1.62;52.73
11648;BME280;5880;52.342;9.662;2024-01-10T01:19:38;102732.81;;;-1.60;52.44
11648;BME280;5880;52.342;9.662;2024-01-10T01:22:03;102745.25;;;-1.59;52.22
11648;BME280;5880;52.342;9.662;2024-01-10T01:24:29;102737.19;;;-1.59;52.19
11648;BME280;5880;52.342;9.662;2024-01-10T01:26:55;102731.94;;;-1.61;52.56
11648;BME280;5880;52.342;9.662;2024-01-10T01:29:20;102731.19;;;-1.63;52.20
11648;BME280;5880;52.342;9.662;2024-01-10T01:31:47;102732.47;;;-1.68;52.09
11648;BME280;5880;52.342;9.662;2024-01-10T01:34:12;102731.78;;;-1.72;52.11
11648;BME280;5880;52.342;9.662;2024-01-10T01:36:38;102733.19;;;-1.66;52.09
11648;BME280;5880;52.342;9.662;2024-01-10T01:39:04;102744.81;;;-1.66;52.49
11648;BME280;5880;52.342;9.662;2024-01-10T01:41:30;102743.91;;;-1.66;52.24
11648;BME280;5880;52.342;9.662;2024-01-10T01:43:55;102745.75;;;-1.67;52.24
11648;BME280;5880;52.342;9.662;2024-01-10T01:46:22;102741.38;;;-1.68;52.09
11648;BME280;5880;52.342;9.662;2024-01-10T01:48:49;102737.81;;;-1.68;52.14
11648;BME280;5880;52.342;9.662;2024-01-10T01:51:16;102739.53;;;-1.67;52.36
11648;BME280;5880;52.342;9.662;2024-01-10T01:53:44;102735.03;;;-1.67;51.99
11648;BME280;5880;52.342;9.662;2024-01-10T01:56:12;102740.50;;;-1.68;52.30
11648;BME280;5880;52.342;9.662;2024-01-10T01:58:39;102744.03;;;-1.68;52.10
11648;BME280;5880;52.342;9.662;2024-01-10T02:01:05;102729.78;;;-1.68;52.42
11648;BME280;5880;52.342;9.662;2024-01-10T02:03:32;102732.47;;;-1.68;52.26
11648;BME280;5880;52.342;9.662;2024-01-10T02:05:59;102725.28;;;-1.68;51.96
11648;BME280;5880;52.342;9.662;2024-01-10T02:08:25;102724.50;;;-1.70;51.96
11648;BME280;5880;52.342;9.662;2024-01-10T02:10:51;102720.00;;;-1.70;52.33
11648;BME280;5880;52.342;9.662;2024-01-10T02:13:17;102719.22;;;-1.72;52.12
11648;BME280;5880;52.342;9.662;2024-01-10T02:15:43;102721.91;;;-1.72;52.08
11648;BME280;5880;52.342;9.662;2024-01-10T02:18:09;102720.09;;;-1.71;52.15
11648;BME280;5880;52.342;9.662;2024-01-10T02:20:38;102714.72;;;-1.71;52.12
11648;BME280;5880;52.342;9.662;2024-01-10T02:23:04;102720.22;;;-1.73;52.03
11648;BME280;5880;52.342;9.662;2024-01-10T02:25:30;102713.31;;;-1.77;52.37
11648;BME280;5880;52.342;9.662;2024-01-10T02:27:55;102702.91;;;-1.81;51.99
11648;BME280;5880;52.342;9.662;2024-01-10T02:30:21;102715.25;;;-1.79;52.22
11648;BME280;5880;52.342;9.662;2024-01-10T02:32:47;102703.19;;;-1.86;51.95
11648;BME280;5880;52.342;9.662;2024-01-10T02:35:12;102696.31;;;-1.90;52.01
11648;BME280;5880;52.342;9.662;2024-01-10T02:37:38;102708.56;;;-1.86;51.92
11648;BME280;5880;52.342;9.662;2024-01-10T02:40:04;102706.84;;;-1.87;52.06
11648;BME280;5880;52.342;9.662;2024-01-10T02:42:31;102710.47;;;-1.88;52.19
11648;BME280;5880;52.342;9.662;2024-01-10T02:44:57;102709.63;;;-1.88;52.35
11648;BME280;5880;52.342;9.662;2024-01-10T02:47:23;102710.69;;;-1.91;52.20
11648;BME280;5880;52.342;9.662;2024-01-10T02:49:48;102702.63;;;-1.91;51.98
11648;BME280;5880;52.342;9.662;2024-01-10T02:52:14;102702.63;;;-1.91;52.34
11648;BME280;5880;52.342;9.662;2024-01-10T02:54:40;102688.78;;;-1.98;52.40
11648;BME280;5880;52.342;9.662;2024-01-10T02:57:05;102686.84;;;-1.96;52.11
11648;BME280;5880;52.342;9.662;2024-01-10T02:59:31;102698.13;;;-1.91;52.24
11648;BME280;5880;52.342;9.662;2024-01-10T03:01:57;102694.69;;;-1.93;52.10
11648;BME280;5880;52.342;9.662;2024-01-10T03:04:22;102699.28;;;-1.95;52.46
11648;BME280;5880;52.342;9.662;2024-01-10T03:06:48;102695.88;;;-1.97;52.19
11648;BME280;5880;52.342;9.662;2024-01-10T03:09:13;102695.88;;;-1.97;52.33
11648;BME280;5880;52.342;9.662;2024-01-10T03:11:39;102705.72;;;-1.97;52.23
11648;BME280;5880;52.342;9.662;2024-01-10T03:14:10;102701.41;;;-2.00;52.02
11648;BME280;5880;52.342;9.662;2024-01-10T03:16:37;102691.66;;;-2.01;52.24
11648;BME280;5880;52.342;9.662;2024-01-10T03:19:03;102702.47;;;-2.02;52.20
11648;BME280;5880;52.342;9.662;2024-01-10T03:21:29;102691.84;;;-2.04;52.08
11648;BME280;5880;52.342;9.662;2024-01-10T03:24:00;102695.50;;;-2.05;52.49
11648;BME280;5880;52.342;9.662;2024-01-10T03:26:27;102679.72;;;-2.09;52.34
11648;BME280;5880;52.342;9.662;2024-01-10T03:28:53;102684.00;;;-2.07;52.53
11648;BME280;5880;52.342;9.662;2024-01-10T03:31:19;102681.53;;;-2.10;52.10
11648;BME280;5880;52.342;9.662;2024-01-10T03:33:45;102690.22;;;-2.06;52.22
11648;BME280;5880;52.342;9.662;2024-01-10T03:36:14;102685.75;;;-2.06;52.31
11648;BME280;5880;52.342;9.662;2024-01-10T03:38:40;102676.94;;;-2.08;52.11
11648;BME280;5880;52.342;9.662;2024-01-10T03:41:06;102671.66;;;-2.09;51.95
11648;BME280;5880;52.342;9.662;2024-01-10T03:43:32;102676.94;;;-2.08;52.50
11648;BME280;5880;52.342;9.662;2024-01-10T03:45:58;102681.41;;;-2.08;52.50
11648;BME280;5880;52.342;9.662;2024-01-10T03:48:24;102680.56;;;-2.09;52.42
11648;BME280;5880;52.342;9.662;2024-01-10T03:50:50;102679.72;;;-2.09;52.38
11648;BME280;5880;52.342;9.662;2024-01-10T03:53:16;102674.25;;;-2.08;52.61
11648;BME280;5880;52.342;9.662;2024-01-10T03:55:41;102681.41;;;-2.08;52.39
11648;BME280;5880;52.342;9.662;2024-01-10T03:58:07;102677.78;;;-2.07;52.39
11648;BME280;5880;52.342;9.662;2024-01-10T04:00:33;102675.97;;;-2.07;52.68
11648;BME280;5880;52.342;9.662;2024-01-10T04:02:59;102672.44;;;-2.07;52.15
11648;BME280;5880;52.342;9.662;2024-01-10T04:05:25;102671.75;;;-2.11;52.17
11648;BME280;5880;52.342;9.662;2024-01-10T04:07:51;102679.72;;;-2.09;52.26
11648;BME280;5880;52.342;9.662;2024-01-10T04:10:17;102674.75;;;-2.16;52.80
11648;BME280;5880;52.342;9.662;2024-01-10T04:12:44;102674.84;;;-2.17;52.54
11648;BME280;5880;52.342;9.662;2024-01-10T04:15:12;102677.63;;;-2.19;52.42
11648;BME280;5880;52.342;9.662;2024-01-10T04:17:38;102683.97;;;-2.20;52.65
11648;BME280;5880;52.342;9.662;2024-01-10T04:20:04;102678.38;;;-2.17;52.71
11648;BME280;5880;52.342;9.662;2024-01-10T04:22:30;102679.25;;;-2.16;52.50
11648;BME280;5880;52.342;9.662;2024-01-10T04:25:02;102671.13;;;-2.15;52.51
11648;BME280;5880;52.342;9.662;2024-01-10T04:27:28;102665.84;;;-2.16;52.78
11648;BME280;5880;52.342;9.662;2024-01-10T04:29:54;102679.16;;;-2.15;52.40
11648;BME280;5880;52.342;9.662;2024-01-10T04:32:20;102670.25;;;-2.15;52.66
11648;BME280;5880;52.342;9.662;2024-01-10T04:34:45;102679.16;;;-2.15;52.62
11648;BME280;5880;52.342;9.662;2024-01-10T04:37:11;102660.03;;;-2.23;52.41
11648;BME280;5880;52.342;9.662;2024-01-10T04:39:37;102672.19;;;-2.17;52.54
11648;BME280;5880;52.342;9.662;2024-01-10T04:42:04;102667.75;;;-2.18;52.52
11648;BME280;5880;52.342;9.662;2024-01-10T04:44:30;102664.44;;;-2.22;52.39
11648;BME280;5880;52.342;9.662;2024-01-10T04:46:56;102671.41;;;-2.19;52.40
11648;BME280;5880;52.342;9.662;2024-01-10T04:49:22;102663.59;;;-2.22;52.82
11648;BME280;5880;52.342;9.662;2024-01-10T04:51:49;102652.47;;;-2.30;52.63
11648;BME280;5880;52.342;9.662;2024-01-10T04:54:15;102649.72;;;-2.29;52.53
11648;BME280;5880;52.342;9.662;2024-01-10T04:56:41;102660.91;;;-2.22;52.56
11648;BME280;5880;52.342;9.662;2024-01-10T04:59:06;102661.63;;;-2.20;52.36
11648;BME280;5880;52.342;9.662;2024-01-10T05:01:32;102658.09;;;-2.21;52.68
11648;BME280;5880;52.342;9.662;2024-01-10T05:03:58;102656.19;;;-2.19;52.29
11648;BME280;5880;52.342;9.662;2024-01-10T05:06:24;102659.84;;;-2.20;52.62
11648;BME280;5880;52.342;9.662;2024-01-10T05:08:50;102665.09;;;-2.18;52.46
11648;BME280;5880;52.342;9.662;2024-01-10T05:11:16;102651.69;;;-2.18;52.60
11648;BME280;5880;52.342;9.662;2024-01-10T05:13:44;102655.34;;;-2.19;52.57
11648;BME280;5880;52.342;9.662;2024-01-10T05:16:09;102650.91;;;-2.20;52.22
11648;BME280;5880;52.342;9.662;2024-01-10T05:18:35;102653.50;;;-2.19;52.64
11648;BME280;5880;52.342;9.662;2024-01-10T05:21:02;102646.63;;;-2.23;52.35
11648;BME280;5880;52.342;9.662;2024-01-10T05:23:29;102643.00;;;-2.22;52.49
11648;BME280;5880;52.342;9.662;2024-01-10T05:25:55;102650.06;;;-2.21;52.34
11648;BME280;5880;52.342;9.662;2024-01-10T05:28:21;102654.56;;;-2.21;52.63
11648;BME280;5880;52.342;9.662;2024-01-10T05:30:46;102647.38;;;-2.21;52.34
11648;BME280;5880;52.342;9.662;2024-01-10T05:33:12;102645.00;;;-2.25;52.38
11648;BME280;5880;52.342;9.662;2024-01-10T05:35:41;102648.44;;;-2.23;52.31
11648;BME280;5880;52.342;9.662;2024-01-10T05:38:07;102639.84;;;-2.28;51.92
11648;BME280;5880;52.342;9.662;2024-01-10T05:40:33;102640.81;;;-2.29;52.00
11648;BME280;5880;52.342;9.662;2024-01-10T05:42:59;102644.44;;;-2.30;52.12
11648;BME280;5880;52.342;9.662;2024-01-10T05:45:27;102633.25;;;-2.37;51.82
11648;BME280;5880;52.342;9.662;2024-01-10T05:47:54;102647.41;;;-2.35;52.28
11648;BME280;5880;52.342;9.662;2024-01-10T05:50:20;102651.84;;;-2.34;52.18
11648;BME280;5880;52.342;9.662;2024-01-10T05:52:47;102653.63;;;-2.35;51.90
11648;BME280;5880;52.342;9.662;2024-01-10T05:55:12;102646.09;;;-2.42;52.10
11648;BME280;5880;52.342;9.662;2024-01-10T05:57:39;102647.63;;;-2.38;52.06
11648;BME280;5880;52.342;9.662;2024-01-10T06:00:06;102643.34;;;-2.41;51.89
11648;BME280;5880;52.342;9.662;2024-01-10T06:02:42;102641.50;;;-2.40;51.86
11648;BME280;5880;52.342;9.662;2024-01-10T06:05:09;102643.63;;;-2.45;52.23
11648;BME280;5880;52.342;9.662;2024-01-10T06:07:39;102636.81;;;-2.51;52.05
11648;BME280;5880;52.342;9.662;2024-01-10T06:10:05;102647.75;;;-2.54;52.11
11648;BME280;5880;52.342;9.662;2024-01-10T06:12:31;102653.78;;;-2.50;52.06
11648;BME280;5880;52.342;9.662;2024-01-10T06:14:57;102647.75;;;-2.54;52.37
11648;BME280;5880;52.342;9.662;2024-01-10T06:17:23;102646.69;;;-2.51;52.06
11648;BME280;5880;52.342;9.662;2024-01-10T06:19:50;102654.63;;;-2.50;52.21
11648;BME280;5880;52.342;9.662;2024-01-10T06:22:16;102648.41;;;-2.50;52.38
11648;BME280;5880;52.342;9.662;2024-01-10T06:24:42;102645.75;;;-2.50;52.48
11648;BME280;5880;52.342;9.662;2024-01-10T06:27:08;102643.44;;;-2.57;52.37
11648;BME280;5880;52.342;9.662;2024-01-10T06:29:36;102639.41;;;-2.49;52.70
11648;BME280;5880;52.342;9.662;2024-01-10T06:32:05;102648.31;;;-2.49;52.32
11648;BME280;5880;52.342;9.662;2024-01-10T06:34:32;102645.75;;;-2.50;52.36
11648;BME280;5880;52.342;9.662;2024-01-10T06:36:58;102650.72;;;-2.59;52.24
11648;BME280;5880;52.342;9.662;2024-01-10T06:39:24;102652.31;;;-2.56;52.28
11648;BME280;5880;52.342;9.662;2024-01-10T06:41:49;102643.53;;;-2.58;52.08
11648;BME280;5880;52.342;9.662;2024-01-10T06:44:15;102654.25;;;-2.58;52.42
11648;BME280;5880;52.342;9.662;2024-01-10T06:46:44;102655.22;;;-2.59;52.40
11648;BME280;5880;52.342;9.662;2024-01-10T06:49:11;102647.06;;;-2.58;52.55
11648;BME280;5880;52.342;9.662;2024-01-10T06:51:37;102652.41;;;-2.58;52.47
11648;BME280;5880;52.342;9.662;2024-01-10T06:54:03;102650.78;;;-2.60;52.11
11648;BME280;5880;52.342;9.662;2024-01-10T06:56:30;102640.97;;;-2.60;52.38
11648;BME280;5880;52.342;9.662;2024-01-10T06:58:59;102638.75;;;-2.67;52.32
11648;BME280;5880;52.342;9.662;2024-01-10T07:01:26;102649.94;;;-2.61;52.61
11648;BME280;5880;52.342;9.662;2024-01-10T07:03:55;102653.47;;;-2.60;52.34
11648;BME280;5880;52.342;9.662;2024-01-10T07:06:21;102654.53;;;-2.63;52.44
11648;BME280;5880;52.342;9.662;2024-01-10T07:08:49;102644.09;;;-2.67;52.16
11648;BME280;5880;52.342;9.662;2024-01-10T07:11:18;102649.88;;;-2.73;52.67
11648;BME280;5880;52.342;9.662;2024-01-10T07:13:47;102651.97;;;-2.79;52.91
11648;BME280;5880;52.342;9.662;2024-01-10T07:16:13;102646.78;;;-2.82;53.02
11648;BME280;5880;52.342;9.662;2024-01-10T07:18:40;102641.63;;;-2.85;52.92
11648;BME280;5880;52.342;9.662;2024-01-10T07:21:06;102651.09;;;-2.79;52.84
11648;BME280;5880;52.342;9.662;2024-01-10T07:23:34;102659.91;;;-2.77;53.20
11648;BME280;5880;52.342;9.662;2024-01-10T07:26:01;102657.97;;;-2.75;52.85
11648;BME280;5880;52.342;9.662;2024-01-10T07:28:26;102661.44;;;-2.73;52.99
11648;BME280;5880;52.342;9.662;2024-01-10T07:30:52;102660.56;;;-2.73;52.82
11648;BME280;5880;52.342;9.662;2024-01-10T07:33:18;102666.00;;;-2.75;52.78
11648;BME280;5880;52.342;9.662;2024-01-10T07:35:43;102666.22;;;-2.78;52.79
11648;BME280;5880;52.342;9.662;2024-01-10T07:38:09;102673.47;;;-2.80;53.22
11648;BME280;5880;52.342;9.662;2024-01-10T07:40:35;102662.00;;;-2.82;53.23
11648;BME280;5880;52.342;9.662;2024-01-10T07:43:01;102657.91;;;-2.88;53.13
11648;BME280;5880;52.342;9.662;2024-01-10T07:45:27;102662.38;;;-2.88;53.01
11648;BME280;5880;52.342;9.662;2024-01-10T07:47:54;102668.69;;;-2.89;53.25
11648;BME280;5880;52.342;9.662;2024-01-10T07:50:20;102671.28;;;-2.88;53.26
11648;BME280;5880;52.342;9.662;2024-01-10T07:52:46;102675.75;;;-2.88;53.22
11648;BME280;5880;52.342;9.662;2024-01-10T07:55:12;102677.56;;;-2.89;53.36
11648;BME280;5880;52.342;9.662;2024-01-10T07:57:38;102666.09;;;-2.91;53.41
11648;BME280;5880;52.342;9.662;2024-01-10T08:00:06;102674.81;;;-2.87;53.34
11648;BME280;5880;52.342;9.662;2024-01-10T08:02:36;102678.34;;;-2.87;53.29
11648;BME280;5880;52.342;9.662;2024-01-10T08:05:03;102682.84;;;-2.87;53.45
11648;BME280;5880;52.342;9.662;2024-01-10T08:07:34;102673.84;;;-2.86;53.45
11648;BME280;5880;52.342;9.662;2024-01-10T08:10:06;102679.97;;;-2.84;53.24
11648;BME280;5880;52.342;9.662;2024-01-10T08:12:33;102678.16;;;-2.84;53.26
11648;BME280;5880;52.342;9.662;2024-01-10T08:14:59;102689.47;;;-2.79;53.35
11648;BME280;5880;52.342;9.662;2024-01-10T08:17:24;102688.41;;;-2.76;53.10
11648;BME280;5880;52.342;9.662;2024-01-10T08:19:50;102673.00;;;-2.72;53.29
11648;BME280;5880;52.342;9.662;2024-01-10T08:22:17;102673.75;;;-2.70;53.51
11648;BME280;5880;52.342;9.662;2024-01-10T08:24:45;102680.81;;;-2.69;53.19
11648;BME280;5880;52.342;9.662;2024-01-10T08:27:11;102673.69;;;-2.69;53.67
11648;BME280;5880;52.342;9.662;2024-01-10T08:29:37;102679.03;;;-2.69;53.64
11648;BME280;5880;52.342;9.662;2024-01-10T08:32:03;102673.97;;;-2.73;53.30
11648;BME280;5880;52.342;9.662;2024-01-10T08:34:29;102671.38;;;-2.75;53.49
11648;BME280;5880;52.342;9.662;2024-01-10T08:36:55;102661.63;;;-2.76;53.36
11648;BME280;5880;52.342;9.662;2024-01-10T08:39:20;102665.72;;;-2.70;53.76
11648;BME280;5880;52.342;9.662;2024-01-10T08:41:47;102668.31;;;-2.69;53.39
11648;BME280;5880;52.342;9.662;2024-01-10T08:44:13;102662.97;;;-2.69;53.54
11648;BME280;5880;52.342;9.662;2024-01-10T08:46:39;102658.66;;;-2.71;53.76
11648;BME280;5880;52.342;9.662;2024-01-10T08:49:05;102671.84;;;-2.68;53.61
11648;BME280;5880;52.342;9.662;2024-01-10T08:51:31;102666.00;;;-2.75;53.65
11648;BME280;5880;52.342;9.662;2024-01-10T08:53:57;102670.13;;;-2.69;53.63
11648;BME280;5880;52.342;9.662;2024-01-10T08:56:23;102658.19;;;-2.78;53.47
11648;BME280;5880;52.342;9.662;2024-01-10T08:58:49;102677.41;;;-2.71;53.93
11648;BME280;5880;52.342;9.662;2024-01-10T09:01:15;102671.00;;;-2.69;53.89
11648;BME280;5880;52.342;9.662;2024-01-10T09:03:41;102669.81;;;-2.65;53.74
11648;BME280;5880;52.342;9.662;2024-01-10T09:06:06;102661.72;;;-2.63;53.56
11648;BME280;5880;52.342;9.662;2024-01-10T09:08:35;102662.75;;;-2.51;53.98
11648;BME280;5880;52.342;9.662;2024-01-10T09:11:00;102673.16;;;-2.47;53.64
11648;BME280;5880;52.342;9.662;2024-01-10T09:13:26;102667.72;;;-2.45;53.71
11648;BME280;5880;52.342;9.662;2024-01-10T09:15:52;102674.78;;;-2.44;53.56
11648;BME280;5880;52.342;9.662;2024-01-10T09:18:18;102664.00;;;-2.43;53.68
11648;BME280;5880;52.342;9.662;2024-01-10T09:20:44;102655.97;;;-2.43;53.68
11648;BME280;5880;52.342;9.662;2024-01-10T09:23:10;102655.84;;;-2.41;54.17
11648;BME280;5880;52.342;9.662;2024-01-10T09:25:36;102663.59;;;-2.37;53.98
11648;BME280;5880;52.342;9.662;2024-01-10T09:28:04;102662.34;;;-2.31;54.08
11648;BME280;5880;52.342;9.662;2024-01-10T09:30:30;102671.16;;;-2.29;53.90
11648;BME280;5880;52.342;9.662;2024-01-10T09:32:55;102662.34;;;-2.31;54.43
11648;BME280;5880;52.342;9.662;2024-01-10T09:35:22;102668.06;;;-2.23;54.12
11648;BME280;5880;52.342;9.662;2024-01-10T09:37:48;102664.31;;;-2.20;54.10
11648;BME280;5880;52.342;9.662;2024-01-10T09:40:16;102674.94;;;-2.19;54.16
11648;BME280;5880;52.342;9.662;2024-01-10T09:42:44;102672.06;;;-2.16;54.26
11648;BME280;5880;52.342;9.662;2024-01-10T09:45:10;102660.47;;;-2.16;54.09
11648;BME280;5880;52.342;9.662;2024-01-10T09:47:39;102672.34;;;-2.06;54.16
11648;BME280;5880;52.342;9.662;2024-01-10T09:50:08;102666.78;;;-2.03;53.87
11648;BME280;5880;52.342;9.662;2024-01-10T09:52:50;102671.00;;;-1.99;54.43
11648;BME280;5880;52.342;9.662;2024-01-10T09:55:20;102662.72;;;-1.96;54.40
11648;BME280;5880;52.342;9.662;2024-01-10T09:57:47;102660.69;;;-1.92;54.46
11648;BME280;5880;52.342;9.662;2024-01-10T10:00:16;102660.31;;;-1.86;54.43
11648;BME280;5880;52.342;9.662;2024-01-10T10:02:42;102654.72;;;-1.83;54.26
11648;BME280;5880;52.342;9.662;2024-01-10T10:05:13;102648.41;;;-1.82;54.08
11648;BME280;5880;52.342;9.662;2024-01-10T10:10:11;102643.59;;;-1.77;54.54
11648;BME280;5880;52.342;9.662;2024-01-10T10:12:52;102654.03;;;-1.72;54.05
11648;BME280;5880;52.342;9.662;2024-01-10T10:15:21;102630.88;;;-1.73;54.26
11648;BME280;5880;52.342;9.662;2024-01-10T10:17:53;102640.41;;;-1.69;54.27
11648;BME280;5880;52.342;9.662;2024-01-10T10:20:38;102631.09;;;-1.63;54.49
11648;BME280;5880;52.342;9.662;2024-01-10T10:23:06;102627.78;;;-1.54;54.67
11648;BME280;5880;52.342;9.662;2024-01-10T10:25:37;102623.72;;;-1.47;54.45
11648;BME280;5880;52.342;9.662;2024-01-10T10:28:07;102626.84;;;-1.40;54.78
11648;BME280;5880;52.342;9.662;2024-01-10T10:30:33;102622.78;;;-1.33;54.65
11648;BME280;5880;52.342;9.662;2024-01-10T10:33:01;102626.00;;;-1.28;54.75
11648;BME280;5880;52.342;9.662;2024-01-10T10:35:27;102622.03;;;-1.22;54.80
11648;BME280;5880;52.342;9.662;2024-01-10T10:37:53;102627.94;;;-1.17;54.58
11648;BME280;5880;52.342;9.662;2024-01-10T10:40:21;102621.38;;;-1.13;54.69
11648;BME280;5880;52.342;9.662;2024-01-10T10:42:54;102607.34;;;-1.17;54.06
11648;BME280;5880;52.342;9.662;2024-01-10T10:45:20;102621.28;;;-1.12;53.94
11648;BME280;5880;52.342;9.662;2024-01-10T10:47:59;102620.31;;;-1.11;54.00
11648;BME280;5880;52.342;9.662;2024-01-10T10:50:33;102621.81;;;-1.07;54.24
11648;BME280;5880;52.342;9.662;2024-01-10T10:53:02;102611.84;;;-1.04;54.29
11648;BME280;5880;52.342;9.662;2024-01-10T10:55:29;102610.53;;;-0.99;54.43
11648;BME280;5880;52.342;9.662;2024-01-10T10:57:56;102615.47;;;-0.93;54.46
11648;BME280;5880;52.342;9.662;2024-01-10T11:00:22;102613.56;;;-0.91;54.60
11648;BME280;5880;52.342;9.662;2024-01-10T11:02:56;102612.16;;;-0.83;54.43
11648;BME280;5880;52.342;9.662;2024-01-10T11:05:24;102616.22;;;-0.78;54.34
11648;BME280;5880;52.342;9.662;2024-01-10T11:07:50;102616.88;;;-0.74;54.24
11648;BME280;5880;52.342;9.662;2024-01-10T11:10:33;102607.63;;;-0.70;54.24
11648;BME280;5880;52.342;9.662;2024-01-10T11:13:13;102605.66;;;-0.68;54.01
11648;BME280;5880;52.342;9.662;2024-01-10T11:25:05;102584.50;;;-0.60;54.31
11648;BME280;5880;52.342;9.662;2024-01-10T11:27:31;102593.81;;;-0.53;54.41
11648;BME280;5880;52.342;9.662;2024-01-10T11:29:57;102584.56;;;-0.49;54.44
11648;BME280;5880;52.342;9.662;2024-01-10T11:32:24;102591.41;;;-0.45;54.17
11648;BME280;5880;52.342;9.662;2024-01-10T11:34:55;102595.50;;;-0.39;54.08
11648;BME280;5880;52.342;9.662;2024-01-10T11:37:22;102580.66;;;-0.45;53.68
11648;BME280;5880;52.342;9.662;2024-01-10T11:39:48;102595.50;;;-0.39;53.69
11648;BME280;5880;52.342;9.662;2024-01-10T11:42:44;102594.19;;;-0.33;53.63
11648;BME280;5880;52.342;9.662;2024-01-10T11:45:09;102593.22;;;-0.32;53.60
11648;BME280;5880;52.342;9.662;2024-01-10T11:47:39;102601.16;;;-0.31;53.31
11648;BME280;5880;52.342;9.662;2024-01-10T11:50:07;102590.41;;;-0.31;53.47
11648;BME280;5880;52.342;9.662;2024-01-10T11:52:35;102596.44;;;-0.27;53.56
11648;BME280;5880;52.342;9.662;2024-01-10T11:55:01;102588.97;;;-0.24;53.66
11648;BME280;5880;52.342;9.662;2024-01-10T11:57:29;102583.16;;;-0.17;53.70
11648;BME280;5880;52.342;9.662;2024-01-10T11:59:58;102592.47;;;-0.10;53.74
11648;BME280;5880;52.342;9.662;2024-01-10T12:02:29;102594.06;;;-0.08;53.21
11648;BME280;5880;52.342;9.662;2024-01-10T12:04:55;102586.16;;;-0.09;53.37
11648;BME280;5880;52.342;9.662;2024-01-10T12:07:21;102588.50;;;-0.05;53.38
11648;BME280;5880;52.342;9.662;2024-01-10T12:09:49;102587.41;;;-0.02;53.35
11648;BME280;5880;52.342;9.662;2024-01-10T12:12:15;102584.47;;;0.01;53.57
11648;BME280;5880;52.342;9.662;2024-01-10T12:14:42;102581.69;;;0.03;53.54
11648;BME280;5880;52.342;9.662;2024-01-10T12:17:11;102574.47;;;0.03;53.27
11648;BME280;5880;52.342;9.662;2024-01-10T12:19:37;102575.41;;;0.02;53.03
11648;BME280;5880;52.342;9.662;2024-01-10T12:22:04;102571.63;;;0.05;53.09
11648;BME280;5880;52.342;9.662;2024-01-10T12:24:33;102579.59;;;0.06;53.11
11648;BME280;5880;52.342;9.662;2024-01-10T12:26:59;102574.97;;;0.08;53.38
11648;BME280;5880;52.342;9.662;2024-01-10T12:29:26;102583.53;;;0.13;53.10
11648;BME280;5880;52.342;9.662;2024-01-10T12:31:52;102586.13;;;0.15;53.07
11648;BME280;5880;52.342;9.662;2024-01-10T12:34:20;102585.13;;;0.16;52.98
11648;BME280;5880;52.342;9.662;2024-01-10T12:36:46;102579.66;;;0.17;53.30
11648;BME280;5880;52.342;9.662;2024-01-10T12:39:14;102582.22;;;0.19;53.10
11648;BME280;5880;52.342;9.662;2024-01-10T12:41:41;102579.41;;;0.20;52.60
11648;BME280;5880;52.342;9.662;2024-01-10T12:44:07;102586.38;;;0.23;52.58
11648;BME280;5880;52.342;9.662;2024-01-10T12:46:32;102583.69;;;0.23;52.51
11648;BME280;5880;52.342;9.662;2024-01-10T12:49:05;102580.16;;;0.23;52.43
11648;BME280;5880;52.342;9.662;2024-01-10T12:51:33;102579.91;;;0.26;52.49
11648;BME280;5880;52.342;9.662;2024-01-10T12:54:02;102564.88;;;0.23;52.68
11648;BME280;5880;52.342;9.662;2024-01-10T12:56:30;102574.06;;;0.32;52.82
11648;BME280;5880;52.342;9.662;2024-01-10T12:58:56;102570.28;;;0.34;52.76
11648;BME280;5880;52.342;9.662;2024-01-10T13:01:23;102572.72;;;0.37;52.55
11648;BME280;5880;52.342;9.662;2024-01-10T13:03:49;102561.97;;;0.37;52.72
11648;BME280;5880;52.342;9.662;2024-01-10T13:06:16;102558.91;;;0.42;52.70
11648;BME280;5880;52.342;9.662;2024-01-10T13:08:43;102559.66;;;0.44;52.82
11648;BME280;5880;52.342;9.662;2024-01-10T13:11:09;102556.50;;;0.50;52.78